Time;durP1;ratioP1;P1;durP2;ratioP2;P2;SDS_P1;SDS_P2;PMS_P1;PMS_P2;Temp;Humidity;BMP_temperature;BMP_pressure;BME280_temperature;BME280_humidity;BME280_pressure;Samples;Min_cycle;Max_cycle;Signal;HPM_P1;HPM_P2
2022/09/11 00:00:47;;;;;;;6.75;5.90;;;;;;;;;;6197013;23;20025;-76
2022/09/11 00:03:32;;;;;;;10.60;5.80;;;;;;;;;;6196957;23;20017;-76
2022/09/11 00:06:21;;;;;;;9.18;6.07;;;;;;;;;;6197063;23;20017;-76
2022/09/11 00:09:07;;;;;;;8.18;6.05;;;;;;;;;;6197385;23;20426;-76
2022/09/11 00:11:52;;;;;;;11.45;6.10;;;;;;;;;;6187082;23;20017;-76
2022/09/11 00:14:39;;;;;;;8.77;5.70;;;;;;;;;;6196928;23;20016;-75
2022/09/11 00:17:25;;;;;;;9.55;5.72;;;;;;;;;;6196791;23;20017;-76
2022/09/11 00:20:10;;;;;;;6.80;5.47;;;;;;;;;;6197240;23;20017;-77
2022/09/11 00:22:57;;;;;;;7.50;5.93;;;;;;;;;;6197178;23;20427;-77
2022/09/11 00:25:45;;;;;;;11.07;5.90;;;;;;;;;;6196814;23;20013;-76
2022/09/11 00:28:30;;;;;;;14.20;7.40;;;;;;;;;;6197287;23;20021;-76
2022/09/11 00:31:18;;;;;;;8.65;6.00;;;;;;;;;;6197001;23;20021;-77
2022/09/11 00:34:05;;;;;;;10.43;5.38;;;;;;;;;;6196804;23;20021;-76
2022/09/11 00:36:52;;;;;;;9.52;5.78;;;;;;;;;;6197169;23;20021;-76
2022/09/11 00:39:37;;;;;;;7.55;5.72;;;;;;;;;;6216330;23;20017;-77
2022/09/11 00:42:24;;;;;;;12.38;6.72;;;;;;;;;;6196773;23;20021;-76
2022/09/11 00:45:23;;;;;;;10.05;6.53;;;;;;;;;;6216330;23;20013;-76
2022/09/11 00:48:10;;;;;;;7.70;6.40;;;;;;;;;;6197013;23;20021;-76
2022/09/11 00:50:58;;;;;;;13.38;6.50;;;;;;;;;;6195465;23;20025;-76
2022/09/11 00:53:46;;;;;;;9.23;6.38;;;;;;;;;;6196541;23;20445;-76
2022/09/11 00:56:35;;;;;;;12.40;6.18;;;;;;;;;;6196605;23;20017;-77
2022/09/11 00:59:26;;;;;;;9.02;6.45;;;;;;;;;;6196714;23;20025;-77
2022/09/11 01:02:17;;;;;;;8.25;6.40;;;;;;;;;;6196951;23;20025;-76
2022/09/11 01:05:03;;;;;;;8.25;6.68;;;;;;;;;;6197086;23;20017;-76
2022/09/11 01:07:54;;;;;;;10.32;6.30;;;;;;;;;;6196392;23;20017;-76
2022/09/11 01:11:12;;;;;;;7.93;6.18;;;;;;;;;;6216366;23;20025;-76
2022/09/11 01:14:16;;;;;;;12.38;5.78;;;;;;;;;;6196294;23;20021;-76
2022/09/11 01:17:14;;;;;;;9.13;5.95;;;;;;;;;;6196794;23;20021;-76
2022/09/11 01:20:23;;;;;;;9.27;5.53;;;;;;;;;;6196364;23;20017;-76
2022/09/11 01:23:19;;;;;;;9.90;5.93;;;;;;;;;;6196040;23;20016;-76
2022/09/11 01:26:23;;;;;;;8.40;6.15;;;;;;;;;;6194995;23;20017;-76
2022/09/11 01:29:12;;;;;;;11.90;5.93;;;;;;;;;;6196928;23;20021;-76
2022/09/11 01:32:14;;;;;;;14.52;6.47;;;;;;;;;;6196480;23;20025;-76
2022/09/11 01:35:02;;;;;;;11.27;6.03;;;;;;;;;;6173907;23;20017;-76
2022/09/11 01:38:00;;;;;;;9.15;5.25;;;;;;;;;;6196323;23;20021;-76
2022/09/11 01:40:48;;;;;;;9.10;5.85;;;;;;;;;;6215984;23;20021;-76
2022/09/11 01:43:50;;;;;;;9.13;5.90;;;;;;;;;;6194920;23;20013;-76
2022/09/11 01:46:39;;;;;;;14.35;6.47;;;;;;;;;;6194901;23;20024;-75
2022/09/11 01:49:41;;;;;;;12.00;5.90;;;;;;;;;;6203283;23;20021;-76
2022/09/11 01:52:32;;;;;;;8.40;5.82;;;;;;;;;;6195039;23;20021;-76
2022/09/11 01:55:41;;;;;;;12.20;6.35;;;;;;;;;;6195903;23;20017;-76
2022/09/11 01:58:29;;;;;;;9.27;6.25;;;;;;;;;;6194817;23;20448;-76
2022/09/11 02:01:21;;;;;;;8.00;5.88;;;;;;;;;;6195904;23;20021;-77
2022/09/11 02:04:26;;;;;;;10.75;6.10;;;;;;;;;;6194589;23;20024;-75
2022/09/11 02:07:27;;;;;;;10.70;6.10;;;;;;;;;;6196067;23;20016;-76
2022/09/11 02:10:23;;;;;;;10.10;6.30;;;;;;;;;;6194190;23;20020;-75
2022/09/11 02:13:44;;;;;;;12.32;5.88;;;;;;;;;;6216108;23;20419;-76
2022/09/11 02:16:47;;;;;;;11.18;5.85;;;;;;;;;;6184628;23;20016;-76
2022/09/11 02:19:32;;;;;;;9.73;6.28;;;;;;;;;;6194790;23;20025;-76
2022/09/11 02:22:19;;;;;;;11.52;6.25;;;;;;;;;;6196255;23;20021;-76
2022/09/11 02:25:05;;;;;;;8.40;6.45;;;;;;;;;;6195769;23;20021;-76
2022/09/11 02:27:51;;;;;;;10.82;6.43;;;;;;;;;;6215680;23;20021;-76
2022/09/11 02:30:38;;;;;;;12.73;6.97;;;;;;;;;;6215738;23;20021;-76
2022/09/11 02:33:34;;;;;;;13.23;6.68;;;;;;;;;;6216181;23;20029;-76
2022/09/11 02:36:39;;;;;;;9.35;7.10;;;;;;;;;;6198322;23;20424;-76
2022/09/11 02:40:01;;;;;;;9.93;6.30;;;;;;;;;;6192766;23;20355;-76
2022/09/11 02:43:16;;;;;;;12.23;6.25;;;;;;;;;;6217756;23;20021;-76
2022/09/11 02:46:22;;;;;;;8.55;5.75;;;;;;;;;;6196436;23;20021;-76
2022/09/11 02:49:25;;;;;;;7.18;5.80;;;;;;;;;;6217672;23;20438;-76
2022/09/11 02:52:20;;;;;;;7.63;6.00;;;;;;;;;;6217706;23;20024;-76
2022/09/11 02:55:17;;;;;;;7.95;6.22;;;;;;;;;;6196571;23;20021;-76
2022/09/11 02:58:08;;;;;;;9.27;5.78;;;;;;;;;;6196258;23;20025;-76
2022/09/11 03:01:00;;;;;;;8.60;5.82;;;;;;;;;;6196739;23;20021;-76
2022/09/11 03:03:45;;;;;;;9.25;5.97;;;;;;;;;;6217820;23;20052;-76
2022/09/11 03:06:31;;;;;;;12.27;6.30;;;;;;;;;;6197557;23;20021;-76
2022/09/11 03:09:18;;;;;;;9.32;6.35;;;;;;;;;;6217585;23;20443;-76
2022/09/11 03:12:05;;;;;;;7.72;5.75;;;;;;;;;;6217201;23;20029;-76
2022/09/11 03:14:54;;;;;;;6.30;5.30;;;;;;;;;;6196734;23;20021;-76
2022/09/11 03:17:40;;;;;;;7.20;5.20;;;;;;;;;;6196220;23;20021;-76
2022/09/11 03:20:25;;;;;;;6.60;5.50;;;;;;;;;;6217462;23;20021;-76
2022/09/11 03:23:10;;;;;;;9.07;5.38;;;;;;;;;;6217546;23;20021;-76
2022/09/11 03:25:55;;;;;;;8.60;5.85;;;;;;;;;;6217628;23;20025;-77
2022/09/11 03:28:41;;;;;;;6.80;5.47;;;;;;;;;;6196580;23;20021;-77
2022/09/11 03:31:29;;;;;;;8.25;5.93;;;;;;;;;;6195917;23;20021;-77
2022/09/11 03:34:16;;;;;;;11.43;6.38;;;;;;;;;;6217407;23;20435;-77
2022/09/11 03:37:01;;;;;;;8.80;6.13;;;;;;;;;;6196031;23;20017;-77
2022/09/11 03:39:47;;;;;;;6.70;5.78;;;;;;;;;;6197167;23;20021;-77
2022/09/11 03:42:33;;;;;;;10.98;5.97;;;;;;;;;;6197369;23;20435;-77
2022/09/11 03:45:20;;;;;;;11.82;6.80;;;;;;;;;;6216767;23;20017;-77
2022/09/11 03:48:06;;;;;;;11.88;6.55;;;;;;;;;;6195931;23;20021;-77
2022/09/11 03:50:51;;;;;;;10.63;6.18;;;;;;;;;;6197536;23;20025;-76
2022/09/11 03:53:37;;;;;;;9.95;6.63;;;;;;;;;;6197001;23;20025;-76
2022/09/11 03:56:23;;;;;;;12.77;6.78;;;;;;;;;;6197530;23;20021;-76
2022/09/11 03:59:08;;;;;;;12.85;6.30;;;;;;;;;;6217215;23;20342;-76
2022/09/11 04:01:55;;;;;;;14.70;6.10;;;;;;;;;;6217113;23;20017;-76
2022/09/11 04:04:41;;;;;;;9.85;6.32;;;;;;;;;;6217333;23;20021;-77
2022/09/11 04:07:29;;;;;;;11.63;6.40;;;;;;;;;;6197373;23;20017;-77
2022/09/11 04:10:16;;;;;;;12.82;7.35;;;;;;;;;;6193972;23;20025;-77
2022/09/11 04:13:02;;;;;;;14.32;7.85;;;;;;;;;;6216443;23;20017;-78
2022/09/11 04:15:47;;;;;;;10.98;8.45;;;;;;;;;;6196908;23;20017;-77
2022/09/11 04:18:35;;;;;;;11.73;9.25;;;;;;;;;;6216759;23;20021;-77
2022/09/11 04:21:22;;;;;;;12.48;9.50;;;;;;;;;;6196009;23;20064;-76
2022/09/11 04:24:09;;;;;;;16.58;9.55;;;;;;;;;;6216387;23;20339;-76
2022/09/11 04:26:55;;;;;;;11.77;9.57;;;;;;;;;;6216808;23;20343;-76
2022/09/11 04:29:43;;;;;;;15.50;10.05;;;;;;;;;;6216701;23;20049;-76
2022/09/11 04:32:28;;;;;;;12.38;9.73;;;;;;;;;;6195395;23;20024;-75
2022/09/11 04:35:15;;;;;;;13.45;9.45;;;;;;;;;;6214715;23;20024;-77
2022/09/11 04:38:08;;;;;;;11.80;8.95;;;;;;;;;;6194831;23;20342;-77
2022/09/11 04:40:59;;;;;;;12.65;8.43;;;;;;;;;;6216370;23;20021;-77
2022/09/11 04:43:44;;;;;;;11.68;8.00;;;;;;;;;;6194976;23;20021;-77
2022/09/11 04:46:33;;;;;;;7.63;6.80;;;;;;;;;;6215387;23;20021;-77
2022/09/11 04:49:20;;;;;;;7.97;6.43;;;;;;;;;;6194741;23;20351;-77
2022/09/11 04:52:06;;;;;;;14.93;6.57;;;;;;;;;;6196468;23;20024;-76
2022/09/11 04:54:52;;;;;;;15.48;6.57;;;;;;;;;;6195305;23;20020;-75
2022/09/11 04:57:37;;;;;;;13.52;5.88;;;;;;;;;;6214853;23;20021;-76
2022/09/11 05:00:23;;;;;;;9.70;6.00;;;;;;;;;;6215946;23;20021;-76
2022/09/11 05:03:10;;;;;;;13.80;6.15;;;;;;;;;;6196272;23;20021;-76
2022/09/11 05:05:56;;;;;;;12.90;6.75;;;;;;;;;;6194284;23;20021;-76
2022/09/11 05:08:45;;;;;;;12.50;7.30;;;;;;;;;;6196354;23;20442;-76
2022/09/11 05:11:35;;;;;;;11.80;7.35;;;;;;;;;;6194850;23;20021;-76
2022/09/11 05:14:20;;;;;;;9.07;6.10;;;;;;;;;;6195069;23;20021;-77
2022/09/11 05:17:08;;;;;;;12.75;6.25;;;;;;;;;;6215779;23;20013;-77
2022/09/11 05:19:58;;;;;;;6.13;5.22;;;;;;;;;;6194080;23;20017;-77
2022/09/11 05:22:43;;;;;;;10.85;5.43;;;;;;;;;;6215981;23;20017;-76
2022/09/11 05:25:30;;;;;;;9.63;5.85;;;;;;;;;;6204519;23;20013;-76
2022/09/11 05:28:16;;;;;;;8.48;5.55;;;;;;;;;;6194875;23;20024;-76
2022/09/11 05:31:17;;;;;;;9.15;5.70;;;;;;;;;;6196547;23;20017;-76
2022/09/11 05:34:03;;;;;;;7.88;5.55;;;;;;;;;;6215552;23;20021;-76
2022/09/11 05:36:48;;;;;;;8.02;5.82;;;;;;;;;;6195769;23;20016;-77
2022/09/11 05:39:35;;;;;;;11.25;7.03;;;;;;;;;;6215606;23;20016;-78
2022/09/11 05:42:22;;;;;;;10.80;7.30;;;;;;;;;;6215735;23;20017;-77
2022/09/11 05:45:11;;;;;;;17.38;9.65;;;;;;;;;;6194845;23;20017;-76
2022/09/11 05:47:57;;;;;;;18.00;10.10;;;;;;;;;;6215042;23;20443;-75
2022/09/11 05:50:52;;;;;;;14.65;9.00;;;;;;;;;;6215924;23;20025;-76
2022/09/11 05:53:37;;;;;;;11.85;8.23;;;;;;;;;;6194602;23;20347;-76
2022/09/11 05:56:25;;;;;;;12.77;8.40;;;;;;;;;;6195078;23;20428;-75
2022/09/11 05:59:16;;;;;;;16.70;9.18;;;;;;;;;;6174086;23;20347;-77
2022/09/11 06:02:05;;;;;;;13.88;7.53;;;;;;;;;;6194172;23;20017;-77
2022/09/11 06:05:01;;;;;;;9.02;6.85;;;;;;;;;;6214026;23;20021;-76
2022/09/11 06:07:47;;;;;;;9.73;7.28;;;;;;;;;;6213521;23;20020;-77
2022/09/11 06:10:32;;;;;;;13.85;8.13;;;;;;;;;;6213783;23;20020;-77
2022/09/11 06:13:18;;;;;;;17.27;8.70;;;;;;;;;;6195321;23;20021;-76
2022/09/11 06:16:12;;;;;;;12.40;9.27;;;;;;;;;;6222208;23;20016;-77
2022/09/11 06:18:57;;;;;;;14.35;8.82;;;;;;;;;;6224383;23;20435;-76
2022/09/11 06:21:43;;;;;;;12.50;7.97;;;;;;;;;;6223292;23;20020;-77
2022/09/11 06:24:38;;;;;;;13.98;8.00;;;;;;;;;;6224398;23;20017;-77
2022/09/11 06:27:24;;;;;;;10.95;8.55;;;;;;;;;;6224642;23;20021;-77
2022/09/11 06:30:11;;;;;;;9.82;7.55;;;;;;;;;;6215331;23;20095;-76
2022/09/11 06:32:57;;;;;;;12.80;8.32;;;;;;;;;;6224759;23;20020;-76
2022/09/11 06:35:44;;;;;;;11.65;8.02;;;;;;;;;;6224740;23;20020;-77
2022/09/11 06:38:31;;;;;;;9.60;7.75;;;;;;;;;;6203575;23;20013;-76
2022/09/11 06:41:17;;;;;;;9.63;6.60;;;;;;;;;;6223883;23;20028;-76
2022/09/11 06:44:04;;;;;;;9.18;7.50;;;;;;;;;;6224493;23;20016;-77
2022/09/11 06:46:50;;;;;;;9.90;6.93;;;;;;;;;;6224843;23;20012;-76
2022/09/11 06:49:36;;;;;;;16.15;7.53;;;;;;;;;;6223201;23;20020;-76
2022/09/11 06:52:56;;;;;;;11.55;8.45;;;;;;;;;;6162651;23;20018;-77
2022/09/11 06:55:45;;;;;;;10.85;8.05;;;;;;;;;;6203120;23;20020;-76
2022/09/11 06:58:34;;;;;;;9.70;7.68;;;;;;;;;;6203354;23;20012;-76
2022/09/11 07:01:21;;;;;;;12.23;7.50;;;;;;;;;;6201799;23;20016;-76
2022/09/11 07:04:12;;;;;;;9.55;6.85;;;;;;;;;;6203098;23;20016;-77
2022/09/11 07:06:59;;;;;;;13.15;7.13;;;;;;;;;;6224845;23;20020;-76
2022/09/11 07:09:44;;;;;;;9.10;7.32;;;;;;;;;;6223681;23;20020;-77
2022/09/11 07:12:30;;;;;;;9.90;7.50;;;;;;;;;;6224428;23;20016;-76
2022/09/11 07:15:16;;;;;;;10.05;7.45;;;;;;;;;;6203096;23;20016;-76
2022/09/11 07:18:02;;;;;;;18.88;9.68;;;;;;;;;;6225657;23;20338;-76
2022/09/11 07:20:49;;;;;;;11.52;7.45;;;;;;;;;;6224806;23;20017;-76
2022/09/11 07:23:38;;;;;;;10.52;6.40;;;;;;;;;;6226652;23;20048;-75
2022/09/11 07:26:28;;;;;;;13.52;7.20;;;;;;;;;;6227421;23;20017;-76
2022/09/11 07:29:21;;;;;;;5.75;4.38;;;;;;;;;;6226915;23;20323;-76
2022/09/11 07:32:06;;;;;;;4.00;3.53;;;;;;;;;;6203723;23;20024;-78
2022/09/11 07:34:52;;;;;;;7.18;4.10;;;;;;;;;;6205201;23;20370;-77
2022/09/11 07:37:37;;;;;;;6.28;4.00;;;;;;;;;;6226062;23;20016;-78
2022/09/11 07:40:23;;;;;;;9.07;4.90;;;;;;;;;;6226103;23;20020;-77
2022/09/11 07:43:09;;;;;;;8.40;4.97;;;;;;;;;;6226631;23;20012;-78
2022/09/11 07:45:55;;;;;;;12.02;5.03;;;;;;;;;;6204712;23;20017;-78
2022/09/11 07:48:41;;;;;;;4.45;4.03;;;;;;;;;;6225925;23;20021;-78
2022/09/11 07:51:28;;;;;;;4.13;3.47;;;;;;;;;;6225822;23;20024;-78
2022/09/11 07:54:15;;;;;;;9.18;4.93;;;;;;;;;;6225610;23;20020;-78
2022/09/11 07:57:01;;;;;;;8.02;4.22;;;;;;;;;;6226083;23;20013;-78
2022/09/11 07:59:46;;;;;;;4.68;3.88;;;;;;;;;;6225018;23;20396;-76
2022/09/11 08:02:31;;;;;;;6.10;4.10;;;;;;;;;;6224450;23;20025;-77
2022/09/11 08:05:17;;;;;;;3.78;2.70;;;;;;;;;;6224943;23;20016;-77
2022/09/11 08:08:03;;;;;;;4.03;3.05;;;;;;;;;;6225078;23;20016;-77
2022/09/11 08:10:48;;;;;;;7.25;3.00;;;;;;;;;;6204300;23;20020;-76
2022/09/11 08:13:33;;;;;;;8.15;3.30;;;;;;;;;;6225591;23;20024;-77
2022/09/11 08:16:21;;;;;;;4.65;3.00;;;;;;;;;;6225736;23;20021;-77
2022/09/11 08:19:13;;;;;;;3.72;2.72;;;;;;;;;;6226023;23;20016;-77
2022/09/11 08:21:59;;;;;;;6.60;3.53;;;;;;;;;;6226572;23;20024;-77
2022/09/11 08:24:45;;;;;;;5.57;3.30;;;;;;;;;;6205040;23;20020;-77
2022/09/11 08:27:34;;;;;;;5.97;3.30;;;;;;;;;;6204051;23;20016;-77
2022/09/11 08:30:20;;;;;;;8.63;2.50;;;;;;;;;;6225571;23;20020;-77
2022/09/11 08:33:07;;;;;;;3.22;2.38;;;;;;;;;;6225389;23;20385;-77
2022/09/11 08:35:54;;;;;;;6.88;2.85;;;;;;;;;;6204052;23;20382;-77
2022/09/11 08:38:41;;;;;;;6.10;2.92;;;;;;;;;;6204669;23;20017;-77
2022/09/11 08:41:36;;;;;;;4.25;2.67;;;;;;;;;;6226721;23;20020;-77
2022/09/11 08:44:26;;;;;;;5.50;2.92;;;;;;;;;;6225441;23;20028;-76
2022/09/11 08:47:23;;;;;;;3.95;2.80;;;;;;;;;;6204417;23;20012;-77
2022/09/11 08:50:20;;;;;;;3.83;2.58;;;;;;;;;;6224768;23;20021;-76
2022/09/11 08:53:14;;;;;;;3.78;3.03;;;;;;;;;;6203963;23;20024;-78
2022/09/11 08:56:06;;;;;;;4.55;2.60;;;;;;;;;;6224970;23;20430;-78
2022/09/11 08:59:08;;;;;;;5.20;3.20;;;;;;;;;;6225986;23;20013;-77
2022/09/11 09:02:27;;;;;;;5.57;3.10;;;;;;;;;;6225625;23;20017;-77
2022/09/11 09:05:31;;;;;;;6.20;2.85;;;;;;;;;;6225526;23;20024;-78
2022/09/11 09:08:26;;;;;;;;;;;;;;;;;;6225967;23;20021;-76
2022/09/11 09:11:12;;;;;;;4.20;2.43;;;;;;;;;;6203316;23;19912;-77
2022/09/11 09:14:07;;;;;;;5.05;2.03;;;;;;;;;;6203644;23;20021;-76
2022/09/11 09:17:06;;;;;;;5.10;2.65;;;;;;;;;;6225277;23;20017;-77
2022/09/11 09:20:11;;;;;;;5.10;2.45;;;;;;;;;;6225387;23;20012;-78
2022/09/11 09:23:24;;;;;;;2.35;2.15;;;;;;;;;;6225251;23;20021;-77
2022/09/11 09:26:17;;;;;;;5.60;2.10;;;;;;;;;;6225261;23;20020;-78
2022/09/11 09:29:13;;;;;;;4.80;2.05;;;;;;;;;;6225515;23;20013;-77
2022/09/11 09:32:03;;;;;;;3.00;2.20;;;;;;;;;;6224918;23;20020;-77
2022/09/11 09:34:54;;;;;;;3.45;2.08;;;;;;;;;;6203947;23;20021;-77
2022/09/11 09:37:41;;;;;;;5.10;2.67;;;;;;;;;;6203921;23;20021;-78
2022/09/11 09:40:30;;;;;;;3.35;2.33;;;;;;;;;;6203337;23;20025;-77
2022/09/11 09:43:35;;;;;;;6.35;2.30;;;;;;;;;;6225583;23;20028;-77
2022/09/11 09:46:31;;;;;;;4.82;2.22;;;;;;;;;;6226156;23;20017;-77
2022/09/11 09:49:28;;;;;;;4.30;3.10;;;;;;;;;;6225607;23;20129;-77
2022/09/11 09:52:17;;;;;;;4.95;3.22;;;;;;;;;;6226467;23;20021;-78
2022/09/11 09:55:13;;;;;;;4.47;3.33;;;;;;;;;;6225193;23;20414;-76
2022/09/11 09:57:58;;;;;;;3.63;2.70;;;;;;;;;;6225920;23;20021;-77
2022/09/11 10:00:44;;;;;;;3.53;2.63;;;;;;;;;;6227777;23;20036;-77
2022/09/11 10:03:30;;;;;;;4.25;2.63;;;;;;;;;;6225716;23;20453;-80
2022/09/11 10:06:20;;;;;;;12.27;3.72;;;;;;;;;;6225484;23;20342;-77
2022/09/11 10:09:17;;;;;;;8.32;4.00;;;;;;;;;;6221194;23;20039;-77
2022/09/11 10:12:06;;;;;;;4.05;3.08;;;;;;;;;;6217082;23;20025;-78
2022/09/11 10:14:56;;;;;;;5.88;2.97;;;;;;;;;;6225515;23;20017;-78
2022/09/11 10:17:41;;;;;;;6.50;2.92;;;;;;;;;;6225506;23;20017;-78
2022/09/11 10:20:30;;;;;;;4.30;2.92;;;;;;;;;;6225882;23;20346;-78
2022/09/11 10:23:28;;;;;;;4.15;3.35;;;;;;;;;;6224382;23;20020;-81
2022/09/11 10:26:17;;;;;;;4.22;3.20;;;;;;;;;;6225711;23;20261;-79
2022/09/11 10:29:16;;;;;;;3.78;2.70;;;;;;;;;;6225541;23;20020;-82
2022/09/11 10:32:03;;;;;;;3.17;2.30;;;;;;;;;;6225698;23;20021;-81
2022/09/11 10:34:51;;;;;;;4.72;3.42;;;;;;;;;;6225333;23;20442;-82
2022/09/11 10:37:37;;;;;;;3.47;3.05;;;;;;;;;;6225719;23;20024;-82
2022/09/11 10:40:23;;;;;;;3.67;2.95;;;;;;;;;;6224941;23;20021;-82
2022/09/11 10:43:30;;;;;;;3.47;3.17;;;;;;;;;;6225368;23;20025;-82
2022/09/11 10:46:33;;;;;;;4.43;2.90;;;;;;;;;;6227454;23;20028;-81
2022/09/11 10:49:21;;;;;;;3.53;2.47;;;;;;;;;;6224242;23;20012;-82
2022/09/11 10:52:06;;;;;;;4.28;2.83;;;;;;;;;;6226338;23;20024;-80
2022/09/11 10:55:05;;;;;;;4.25;2.80;;;;;;;;;;6225874;23;20024;-82
2022/09/11 10:57:58;;;;;;;5.18;2.92;;;;;;;;;;6227553;23;20024;-82
2022/09/11 11:00:43;;;;;;;3.78;2.75;;;;;;;;;;6227429;23;20021;-82
2022/09/11 11:03:29;;;;;;;3.42;3.13;;;;;;;;;;6227099;23;20025;-81
2022/09/11 11:06:20;;;;;;;3.60;2.97;;;;;;;;;;6227554;23;20435;-80
2022/09/11 11:09:24;;;;;;;4.72;3.45;;;;;;;;;;6228336;23;20442;-83
2022/09/11 11:12:48;;;;;;;4.72;3.30;;;;;;;;;;6231184;23;20025;-81
2022/09/11 11:16:12;;;;;;;4.90;3.40;;;;;;;;;;6110305;23;20022;-81
2022/09/11 11:19:25;;;;;;;4.70;2.97;;;;;;;;;;6171191;23;20020;-81
2022/09/11 11:22:43;;;;;;;6.13;3.88;;;;;;;;;;6231577;23;20048;-81
2022/09/11 11:26:07;;;;;;;5.60;3.85;;;;;;;;;;6232274;23;20020;-80
2022/09/11 11:29:19;;;;;;;4.72;3.58;;;;;;;;;;6231837;23;20021;-82
2022/09/11 11:32:38;;;;;;;3.88;3.10;;;;;;;;;;6225927;23;20565;-81
2022/09/11 11:35:27;;;;;;;3.63;2.50;;;;;;;;;;6227327;23;20020;-81
2022/09/11 11:38:12;;;;;;;2.75;2.17;;;;;;;;;;6229320;23;20016;-80
2022/09/11 11:41:16;;;;;;;4.60;2.28;;;;;;;;;;6226548;23;20065;-82
2022/09/11 11:44:06;;;;;;;3.58;2.25;;;;;;;;;;6225955;23;20342;-81
2022/09/11 11:46:59;;;;;;;3.30;1.77;;;;;;;;;;6226544;23;20028;-82
2022/09/11 11:50:10;;;;;;;2.30;1.90;;;;;;;;;;6226586;23;20443;-80
2022/09/11 11:53:18;;;;;;;2.25;1.92;;;;;;;;;;6226964;23;20013;-81
2022/09/11 11:56:33;;;;;;;2.72;1.50;;;;;;;;;;6222301;23;20024;-81
2022/09/11 11:59:35;;;;;;;2.50;1.70;;;;;;;;;;6225648;23;20020;-79
2022/09/11 12:02:28;;;;;;;3.92;1.70;;;;;;;;;;6226353;23;20024;-80
2022/09/11 12:05:17;;;;;;;2.10;1.48;;;;;;;;;;6226778;23;20020;-83
2022/09/11 12:08:03;;;;;;;2.25;1.40;;;;;;;;;;6225193;23;20438;-81
2022/09/11 12:11:03;;;;;;;1.42;1.17;;;;;;;;;;6221626;23;20021;-81
2022/09/11 12:13:48;;;;;;;3.50;1.50;;;;;;;;;;6226925;23;20024;-81
2022/09/11 12:16:34;;;;;;;3.75;1.63;;;;;;;;;;6226570;23;20020;-81
2022/09/11 12:19:21;;;;;;;3.97;1.80;;;;;;;;;;6225968;23;20442;-81
2022/09/11 12:22:11;;;;;;;4.35;1.60;;;;;;;;;;6226802;23;20025;-81
2022/09/11 12:24:59;;;;;;;7.72;1.45;;;;;;;;;;6227069;23;20350;-80
2022/09/11 12:27:52;;;;;;;8.65;2.67;;;;;;;;;;6226113;23;20016;-83
2022/09/11 12:31:05;;;;;;;3.78;2.00;;;;;;;;;;6226912;23;20021;-80
2022/09/11 12:33:53;;;;;;;2.92;1.60;;;;;;;;;;6226629;23;20024;-80
2022/09/11 12:36:50;;;;;;;4.35;1.60;;;;;;;;;;6216947;23;20017;-81
2022/09/11 12:39:51;;;;;;;4.60;1.30;;;;;;;;;;6226622;23;20013;-75
2022/09/11 12:42:37;;;;;;;3.97;1.77;;;;;;;;;;6227260;23;20025;-77
2022/09/11 12:45:29;;;;;;;3.72;1.58;;;;;;;;;;6227240;23;20334;-77
2022/09/11 12:48:19;;;;;;;2.00;1.45;;;;;;;;;;6227175;23;20354;-76
2022/09/11 12:51:16;;;;;;;2.25;1.50;;;;;;;;;;6226706;23;20021;-75
2022/09/11 12:54:16;;;;;;;8.70;2.55;;;;;;;;;;6226700;23;20017;-76
2022/09/11 12:57:05;;;;;;;4.30;2.50;;;;;;;;;;6226733;23;20013;-75
2022/09/11 12:59:54;;;;;;;3.67;2.72;;;;;;;;;;6219317;23;20016;-76
2022/09/11 13:02:42;;;;;;;4.40;2.35;;;;;;;;;;6226562;23;20042;-75
2022/09/11 13:05:35;;;;;;;10.68;5.22;;;;;;;;;;6226717;23;20346;-76
2022/09/11 13:08:25;;;;;;;9.05;5.03;;;;;;;;;;6226457;23;20021;-76
2022/09/11 13:11:36;;;;;;;5.88;2.88;;;;;;;;;;6220859;23;20020;-76
2022/09/11 13:14:28;;;;;;;10.95;4.03;;;;;;;;;;6225121;23;20017;-75
2022/09/11 13:17:22;;;;;;;9.57;4.18;;;;;;;;;;6226303;23;20016;-76
2022/09/11 13:20:17;;;;;;;;;;;;;;;;;;6227222;23;20020;-76
2022/09/11 13:23:33;;;;;;;10.02;2.20;;;;;;;;;;6226324;23;19912;-75
2022/09/11 13:26:25;;;;;;;4.18;2.47;;;;;;;;;;6207745;23;20016;-76
2022/09/11 13:29:12;;;;;;;7.55;2.88;;;;;;;;;;6227064;23;20025;-76
2022/09/11 13:32:03;;;;;;;9.82;7.30;;;;;;;;;;6227321;23;20016;-76
2022/09/11 13:34:57;;;;;;;10.48;6.90;;;;;;;;;;6226189;23;20021;-76
2022/09/11 13:37:45;;;;;;;8.05;4.70;;;;;;;;;;6226210;23;20021;-76
2022/09/11 13:40:53;;;;;;;6.07;3.33;;;;;;;;;;6226172;23;20346;-76
2022/09/11 13:43:46;;;;;;;5.60;2.47;;;;;;;;;;6226106;23;20021;-76
2022/09/11 13:46:32;;;;;;;3.80;1.80;;;;;;;;;;6226036;23;20020;-76
2022/09/11 13:49:30;;;;;;;4.32;2.05;;;;;;;;;;6225789;23;20020;-76
2022/09/11 13:52:17;;;;;;;27.92;9.43;;;;;;;;;;6226226;23;20016;-76
2022/09/11 13:55:18;;;;;;;32.88;11.38;;;;;;;;;;6225879;23;20453;-76
2022/09/11 13:58:24;;;;;;;5.70;2.85;;;;;;;;;;6226291;23;20020;-76
2022/09/11 14:01:13;;;;;;;6.10;3.10;;;;;;;;;;6226150;23;20020;-78
2022/09/11 14:03:59;;;;;;;5.10;2.10;;;;;;;;;;6225885;23;20020;-78
2022/09/11 14:06:45;;;;;;;38.15;14.00;;;;;;;;;;6225535;23;20350;-78
2022/09/11 14:09:30;;;;;;;32.92;18.10;;;;;;;;;;6225916;23;20017;-78
2022/09/11 14:12:19;;;;;;;9.48;4.35;;;;;;;;;;6216131;23;20025;-77
2022/09/11 14:15:09;;;;;;;4.15;3.03;;;;;;;;;;6225454;23;20017;-78
2022/09/11 14:18:00;;;;;;;7.18;3.88;;;;;;;;;;6225996;23;20016;-77
2022/09/11 14:20:45;;;;;;;3.58;2.67;;;;;;;;;;6226383;23;20020;-78
2022/09/11 14:23:38;;;;;;;5.78;2.80;;;;;;;;;;6225670;23;20350;-77
2022/09/11 14:26:39;;;;;;;3.80;2.67;;;;;;;;;;6226107;23;20346;-78
2022/09/11 14:29:35;;;;;;;5.57;2.65;;;;;;;;;;6224649;23;20065;-76
2022/09/11 14:32:37;;;;;;;4.90;3.00;;;;;;;;;;6225731;23;20013;-77
2022/09/11 14:35:24;;;;;;;6.88;2.83;;;;;;;;;;6225558;23;20020;-77
2022/09/11 14:38:11;;;;;;;4.63;2.50;;;;;;;;;;6225677;23;20021;-77
2022/09/11 14:41:02;;;;;;;4.90;2.80;;;;;;;;;;6225583;23;20024;-77
2022/09/11 14:43:47;;;;;;;4.95;2.70;;;;;;;;;;6226501;23;20016;-77
2022/09/11 14:46:33;;;;;;;3.38;1.90;;;;;;;;;;6225649;23;20021;-77
2022/09/11 14:49:40;;;;;;;;;;;;;;;;;;;;;
2022/09/11 14:52:29;;;;;;;6.00;1.75;;;;;;;;;;6226346;23;20021;-77
2022/09/11 14:55:17;;;;;;;5.40;1.95;;;;;;;;;;6202617;23;20020;-78
2022/09/11 14:58:02;;;;;;;4.47;1.80;;;;;;;;;;6225974;23;20342;-78
2022/09/11 15:00:48;;;;;;;7.15;2.30;;;;;;;;;;6225161;23;20021;-79
2022/09/11 15:03:33;;;;;;;3.72;2.50;;;;;;;;;;6225504;23;20021;-77
2022/09/11 15:06:19;;;;;;;4.18;2.10;;;;;;;;;;6225578;23;20327;-78
2022/09/11 15:09:04;;;;;;;4.93;2.00;;;;;;;;;;6224094;23;20021;-78
2022/09/11 15:11:51;;;;;;;4.03;2.20;;;;;;;;;;6224151;23;20020;-77
2022/09/11 15:14:37;;;;;;;3.78;2.30;;;;;;;;;;6225391;23;20021;-79
2022/09/11 15:17:30;;;;;;;2.53;1.80;;;;;;;;;;6226778;23;20330;-77
2022/09/11 15:20:15;;;;;;;6.00;2.65;;;;;;;;;;6226186;23;20016;-77
2022/09/11 15:23:02;;;;;;;4.72;2.30;;;;;;;;;;6224970;23;20021;-76
2022/09/11 15:25:48;;;;;;;4.25;2.58;;;;;;;;;;6224118;23;20438;-77
2022/09/11 15:28:35;;;;;;;4.57;2.30;;;;;;;;;;6225147;23;20016;-76
2022/09/11 15:31:22;;;;;;;4.43;2.60;;;;;;;;;;6225613;23;20017;-76
2022/09/11 15:34:09;;;;;;;6.38;2.53;;;;;;;;;;6224802;23;20450;-77
2022/09/11 15:36:55;;;;;;;3.90;2.40;;;;;;;;;;6225649;23;20017;-76
2022/09/11 15:39:40;;;;;;;3.83;2.88;;;;;;;;;;6225143;23;20020;-76
2022/09/11 15:42:26;;;;;;;4.07;2.90;;;;;;;;;;6226478;23;20338;-76
2022/09/11 15:45:12;;;;;;;7.50;2.97;;;;;;;;;;6226515;23;20021;-76
2022/09/11 15:48:01;;;;;;;6.85;2.85;;;;;;;;;;6225447;23;20016;-77
2022/09/11 15:50:58;;;;;;;3.65;2.40;;;;;;;;;;6227075;23;20020;-76
2022/09/11 15:53:44;;;;;;;5.40;2.60;;;;;;;;;;6224542;23;20016;-76
2022/09/11 15:56:30;;;;;;;3.80;2.67;;;;;;;;;;6226921;23;20021;-75
2022/09/11 15:59:15;;;;;;;8.02;2.97;;;;;;;;;;6226752;23;20021;-77
2022/09/11 16:02:01;;;;;;;5.00;2.80;;;;;;;;;;6227208;23;20020;-77
2022/09/11 16:04:46;;;;;;;3.35;2.42;;;;;;;;;;6227284;23;20024;-77
2022/09/11 16:07:32;;;;;;;5.63;3.58;;;;;;;;;;6226765;23;20020;-77
2022/09/11 16:10:18;;;;;;;11.80;5.47;;;;;;;;;;6224666;23;20426;-76
2022/09/11 16:13:03;;;;;;;6.35;3.17;;;;;;;;;;6226944;23;20017;-77
2022/09/11 16:16:01;;;;;;;5.95;2.92;;;;;;;;;;6227241;23;20021;-78
2022/09/11 16:18:46;;;;;;;5.72;2.80;;;;;;;;;;6225751;23;20020;-77
2022/09/11 16:21:32;;;;;;;12.38;9.38;;;;;;;;;;6227407;23;20017;-77
2022/09/11 16:24:17;;;;;;;9.43;4.18;;;;;;;;;;6226625;23;20028;-77
2022/09/11 16:27:05;;;;;;;5.85;3.72;;;;;;;;;;6225974;23;20017;-77
2022/09/11 16:29:50;;;;;;;3.30;2.92;;;;;;;;;;6226899;23;20343;-77
2022/09/11 16:32:38;;;;;;;6.07;3.33;;;;;;;;;;6226701;23;20346;-78
2022/09/11 16:35:24;;;;;;;5.90;3.40;;;;;;;;;;6227050;23;20016;-78
2022/09/11 16:38:09;;;;;;;4.55;3.58;;;;;;;;;;6226507;23;20020;-77
2022/09/11 16:41:08;;;;;;;8.57;5.38;;;;;;;;;;6225234;23;20020;-79
2022/09/11 16:43:53;;;;;;;6.90;4.55;;;;;;;;;;6226682;23;20020;-79
2022/09/11 16:46:41;;;;;;;8.13;4.15;;;;;;;;;;6227192;23;20016;-77
2022/09/11 16:49:27;;;;;;;5.40;3.97;;;;;;;;;;6227089;23;20012;-76
2022/09/11 16:52:12;;;;;;;6.53;4.10;;;;;;;;;;6226587;23;20440;-77
2022/09/11 16:54:58;;;;;;;11.35;4.00;;;;;;;;;;6226810;23;20020;-78
2022/09/11 16:57:45;;;;;;;4.38;3.10;;;;;;;;;;6226269;23;20375;-77
2022/09/11 17:00:30;;;;;;;3.63;2.70;;;;;;;;;;6226540;23;20020;-77
2022/09/11 17:03:16;;;;;;;5.15;2.90;;;;;;;;;;6225901;23;20021;-77